UAL3816 KATL-KORD
Flight info
| Callsign | UAL3816 |
|---|---|
| Flight time | 1h 32m |
| Altitude | 40000 |
| Route | VARNM2 GLAZR Q118 VOSTK/N0475F400 Q118 BONNT WATSN WATSN4 |
| Aircraft | B772/H-SDE2E3FGHIJ5LORVWXY/LB1D1 |
Departure
| Time | 2026-05-06 23:37 |
|---|---|
| Airport | Hartsfield Jackson Atlanta International Airport (KATL) |
Arrival
| Time | 2026-05-07 01:09 |
|---|---|
| Airport | Chicago O'Hare International Airport (KORD) |
| Time | Latitude | Longitude | Altitude | Speed | Heading |
|---|---|---|---|---|---|
| 2026-05-06 23:17 | 33.65208 | -84.42345 | 991 ft | 0 kts | 270° |
| 2026-05-06 23:32 | 33.65190 | -84.42390 | 991 ft | 14 kts | 234° |
| 2026-05-06 23:33 | 33.65144 | -84.42542 | 994 ft | 19 kts | 252° |
| 2026-05-06 23:33 | 33.65068 | -84.42514 | 994 ft | 17 kts | 100° |
| 2026-05-06 23:33 | 33.65063 | -84.42359 | 991 ft | 19 kts | 91° |
| 2026-05-06 23:33 | 33.65063 | -84.42180 | 987 ft | 23 kts | 90° |
| 2026-05-06 23:34 | 33.65064 | -84.41975 | 984 ft | 25 kts | 88° |
| 2026-05-06 23:34 | 33.65066 | -84.41773 | 984 ft | 24 kts | 90° |
| 2026-05-06 23:34 | 33.65076 | -84.41565 | 984 ft | 25 kts | 75° |
| 2026-05-06 23:34 | 33.65124 | -84.41361 | 986 ft | 25 kts | 85° |
| 2026-05-06 23:35 | 33.65120 | -84.41157 | 990 ft | 24 kts | 90° |
| 2026-05-06 23:35 | 33.65085 | -84.40972 | 993 ft | 22 kts | 150° |
| 2026-05-06 23:35 | 33.64926 | -84.40960 | 992 ft | 23 kts | 181° |
| 2026-05-06 23:35 | 33.64843 | -84.40861 | 990 ft | 19 kts | 91° |
| 2026-05-06 23:36 | 33.64843 | -84.40687 | 988 ft | 23 kts | 90° |
| 2026-05-06 23:36 | 33.64735 | -84.40565 | 984 ft | 26 kts | 190° |
| 2026-05-06 23:36 | 33.64678 | -84.40784 | 986 ft | 42 kts | 271° |
| 2026-05-06 23:36 | 33.64679 | -84.41463 | 982 ft | 120 kts | 270° |
| 2026-05-06 23:37 | 33.64685 | -84.42696 | 1207 ft | 160 kts | 267° |
| 2026-05-06 23:37 | 33.64695 | -84.44015 | 1940 ft | 165 kts | 267° |
| 2026-05-06 23:37 | 33.64724 | -84.45335 | 2766 ft | 158 kts | 266° |
| 2026-05-06 23:37 | 33.64910 | -84.46690 | 3195 ft | 178 kts | 283° |
| 2026-05-06 23:38 | 33.65407 | -84.48154 | 3560 ft | 199 kts | 287° |
| 2026-05-06 23:38 | 33.66006 | -84.49735 | 3938 ft | 217 kts | 289° |
| 2026-05-06 23:38 | 33.66666 | -84.51427 | 4398 ft | 232 kts | 290° |
| 2026-05-06 23:38 | 33.67365 | -84.53223 | 4930 ft | 247 kts | 290° |
| 2026-05-06 23:39 | 33.68107 | -84.55126 | 5587 ft | 256 kts | 292° |
| 2026-05-06 23:39 | 33.69179 | -84.56866 | 6403 ft | 267 kts | 313° |
| 2026-05-06 23:39 | 33.70818 | -84.57946 | 7189 ft | 281 kts | 338° |
| 2026-05-06 23:39 | 33.72802 | -84.58215 | 7950 ft | 292 kts | 353° |
| 2026-05-06 23:40 | 33.74833 | -84.58181 | 8784 ft | 294 kts | 355° |
| 2026-05-06 23:40 | 33.76870 | -84.58134 | 9495 ft | 298 kts | 354° |
| 2026-05-06 23:40 | 33.78946 | -84.58099 | 10237 ft | 301 kts | 353° |
| 2026-05-06 23:40 | 33.81095 | -84.58077 | 10629 ft | 318 kts | 354° |
| 2026-05-06 23:41 | 33.83365 | -84.58086 | 10965 ft | 335 kts | 352° |
| 2026-05-06 23:41 | 33.85753 | -84.58127 | 11331 ft | 352 kts | 352° |
| 2026-05-06 23:41 | 33.88263 | -84.58208 | 11731 ft | 367 kts | 352° |
| 2026-05-06 23:41 | 33.90897 | -84.58295 | 12113 ft | 383 kts | 352° |
| 2026-05-06 23:42 | 33.93608 | -84.58382 | 12541 ft | 396 kts | 352° |
| 2026-05-06 23:42 | 33.96344 | -84.58463 | 13289 ft | 398 kts | 352° |
| 2026-05-06 23:42 | 33.99140 | -84.58546 | 14114 ft | 400 kts | 351° |
| 2026-05-06 23:42 | 34.01936 | -84.58630 | 14925 ft | 403 kts | 351° |
| 2026-05-06 23:43 | 34.04716 | -84.58713 | 15773 ft | 405 kts | 351° |
| 2026-05-06 23:43 | 34.07538 | -84.58798 | 16605 ft | 407 kts | 351° |
| 2026-05-06 23:43 | 34.10382 | -84.58884 | 17368 ft | 411 kts | 350° |
| 2026-05-06 23:43 | 34.13282 | -84.58973 | 18037 ft | 417 kts | 350° |
| 2026-05-06 23:44 | 34.16206 | -84.59063 | 18673 ft | 424 kts | 350° |
| 2026-05-06 23:44 | 34.19130 | -84.59151 | 19412 ft | 426 kts | 350° |
| 2026-05-06 23:44 | 34.22103 | -84.59240 | 20131 ft | 429 kts | 349° |
| 2026-05-06 23:44 | 34.25099 | -84.59329 | 20910 ft | 431 kts | 349° |
| 2026-05-06 23:45 | 34.28102 | -84.59422 | 21443 ft | 438 kts | 349° |
| 2026-05-06 23:45 | 34.31162 | -84.59597 | 21932 ft | 442 kts | 347° |
| 2026-05-06 23:45 | 34.34265 | -84.59874 | 22619 ft | 444 kts | 347° |
| 2026-05-06 23:45 | 34.37315 | -84.60147 | 23328 ft | 445 kts | 346° |
| 2026-05-06 23:46 | 34.40432 | -84.60423 | 24021 ft | 447 kts | 347° |
| 2026-05-06 23:46 | 34.43536 | -84.60696 | 24610 ft | 451 kts | 347° |
| 2026-05-06 23:46 | 34.46649 | -84.60969 | 25097 ft | 457 kts | 347° |
| 2026-05-06 23:46 | 34.49854 | -84.61247 | 25687 ft | 460 kts | 347° |
| 2026-05-06 23:47 | 34.53038 | -84.61520 | 26243 ft | 464 kts | 347° |
| 2026-05-06 23:47 | 34.56280 | -84.61800 | 26746 ft | 468 kts | 347° |
| 2026-05-06 23:47 | 34.59514 | -84.62077 | 27269 ft | 472 kts | 347° |
| 2026-05-06 23:47 | 34.62812 | -84.62361 | 27721 ft | 477 kts | 347° |
| 2026-05-06 23:48 | 34.66161 | -84.62648 | 28235 ft | 481 kts | 346° |
| 2026-05-06 23:48 | 34.69490 | -84.62933 | 28791 ft | 483 kts | 347° |
| 2026-05-06 23:48 | 34.72839 | -84.63220 | 29255 ft | 487 kts | 347° |
| 2026-05-06 23:48 | 34.76214 | -84.63509 | 29778 ft | 489 kts | 346° |
| 2026-05-06 23:49 | 34.79613 | -84.63801 | 30271 ft | 492 kts | 347° |
| 2026-05-06 23:49 | 34.83076 | -84.64098 | 30836 ft | 493 kts | 347° |
| 2026-05-06 23:49 | 34.86492 | -84.64390 | 31355 ft | 495 kts | 347° |
| 2026-05-06 23:49 | 34.89904 | -84.64681 | 32078 ft | 491 kts | 346° |
| 2026-05-06 23:50 | 34.93314 | -84.64971 | 32776 ft | 489 kts | 346° |
| 2026-05-06 23:50 | 35.00047 | -84.65549 | 34200 ft | 484 kts | 345° |
| 2026-05-06 23:50 | 35.03413 | -84.65839 | 34856 ft | 483 kts | 345° |
| 2026-05-06 23:51 | 35.06743 | -84.66125 | 35595 ft | 479 kts | 344° |
| 2026-05-06 23:51 | 35.10051 | -84.66407 | 36405 ft | 473 kts | 343° |
| 2026-05-06 23:51 | 35.13367 | -84.66690 | 37271 ft | 464 kts | 343° |
| 2026-05-06 23:51 | 35.16600 | -84.66966 | 38025 ft | 457 kts | 341° |
| 2026-05-06 23:52 | 35.19780 | -84.67245 | 38349 ft | 457 kts | 342° |
| 2026-05-06 23:52 | 35.22929 | -84.67520 | 38765 ft | 455 kts | 341° |
| 2026-05-06 23:52 | 35.26119 | -84.67800 | 39014 ft | 457 kts | 341° |
| 2026-05-06 23:52 | 35.29283 | -84.68078 | 39310 ft | 457 kts | 341° |
| 2026-05-06 23:53 | 35.32490 | -84.68358 | 39601 ft | 457 kts | 341° |
| 2026-05-06 23:53 | 35.35656 | -84.68636 | 39773 ft | 459 kts | 341° |
| 2026-05-06 23:53 | 35.38848 | -84.68914 | 39963 ft | 460 kts | 341° |
| 2026-05-06 23:53 | 35.42027 | -84.69192 | 39968 ft | 459 kts | 341° |
| 2026-05-06 23:54 | 35.48381 | -84.69743 | 39960 ft | 456 kts | 340° |
| 2026-05-06 23:54 | 35.54778 | -84.70305 | 39964 ft | 459 kts | 340° |
| 2026-05-06 23:55 | 35.61117 | -84.70855 | 39954 ft | 453 kts | 340° |
| 2026-05-06 23:55 | 35.67452 | -84.71415 | 39974 ft | 457 kts | 341° |
| 2026-05-06 23:56 | 35.73786 | -84.71968 | 39965 ft | 455 kts | 340° |
| 2026-05-06 23:56 | 35.80118 | -84.72528 | 39980 ft | 458 kts | 340° |
| 2026-05-06 23:57 | 35.86496 | -84.73090 | 39979 ft | 459 kts | 340° |
| 2026-05-06 23:57 | 35.92842 | -84.73648 | 40004 ft | 458 kts | 340° |
| 2026-05-06 23:58 | 35.99236 | -84.74214 | 40006 ft | 459 kts | 340° |
| 2026-05-06 23:58 | 36.05624 | -84.74777 | 40001 ft | 458 kts | 340° |
| 2026-05-06 23:59 | 36.12014 | -84.75346 | 39987 ft | 460 kts | 340° |
| 2026-05-06 23:59 | 36.18404 | -84.75909 | 39991 ft | 456 kts | 339° |
| 2026-05-07 00:00 | 36.24778 | -84.76477 | 39998 ft | 457 kts | 339° |
| 2026-05-07 00:00 | 36.31153 | -84.77049 | 40003 ft | 461 kts | 340° |
| 2026-05-07 00:01 | 36.37618 | -84.77624 | 39996 ft | 460 kts | 340° |
| 2026-05-07 00:01 | 36.43947 | -84.78003 | 40007 ft | 470 kts | 345° |
| 2026-05-07 00:02 | 36.50178 | -84.77827 | 40005 ft | 472 kts | 345° |
| 2026-05-07 00:02 | 36.56733 | -84.77628 | 40019 ft | 473 kts | 345° |
| 2026-05-07 00:03 | 36.63337 | -84.77428 | 40013 ft | 471 kts | 345° |
| 2026-05-07 00:03 | 36.69938 | -84.77236 | 40016 ft | 473 kts | 345° |
| 2026-05-07 00:04 | 36.76509 | -84.77042 | 40031 ft | 472 kts | 345° |
| 2026-05-07 00:04 | 36.83075 | -84.76849 | 40046 ft | 470 kts | 345° |
| 2026-05-07 00:05 | 36.89626 | -84.76656 | 40033 ft | 470 kts | 345° |
| 2026-05-07 00:05 | 36.96140 | -84.76467 | 40052 ft | 473 kts | 345° |
| 2026-05-07 00:06 | 37.02737 | -84.76271 | 40032 ft | 470 kts | 345° |
| 2026-05-07 00:06 | 37.09247 | -84.76081 | 40020 ft | 470 kts | 345° |
| 2026-05-07 00:07 | 37.15844 | -84.75889 | 40012 ft | 474 kts | 345° |
| 2026-05-07 00:07 | 37.22424 | -84.75691 | 39994 ft | 470 kts | 344° |
| 2026-05-07 00:08 | 37.28930 | -84.75499 | 39993 ft | 470 kts | 344° |
| 2026-05-07 00:08 | 37.35486 | -84.75301 | 40002 ft | 471 kts | 344° |
| 2026-05-07 00:09 | 37.42017 | -84.75085 | 40008 ft | 470 kts | 345° |
| 2026-05-07 00:09 | 37.48531 | -84.74871 | 40009 ft | 468 kts | 344° |
| 2026-05-07 00:10 | 37.55073 | -84.74661 | 40021 ft | 471 kts | 344° |
| 2026-05-07 00:10 | 37.61621 | -84.74445 | 40018 ft | 471 kts | 344° |
| 2026-05-07 00:11 | 37.68168 | -84.74227 | 40021 ft | 467 kts | 344° |
| 2026-05-07 00:11 | 37.74683 | -84.74020 | 40013 ft | 470 kts | 344° |
| 2026-05-07 00:12 | 37.81229 | -84.73820 | 40015 ft | 472 kts | 343° |
| 2026-05-07 00:12 | 37.87828 | -84.73616 | 40012 ft | 470 kts | 344° |
| 2026-05-07 00:13 | 37.94370 | -84.73412 | 40014 ft | 469 kts | 343° |
| 2026-05-07 00:13 | 38.00912 | -84.73209 | 40019 ft | 470 kts | 343° |
| 2026-05-07 00:14 | 38.07472 | -84.73008 | 40019 ft | 472 kts | 343° |
| 2026-05-07 00:14 | 38.14013 | -84.72799 | 40010 ft | 466 kts | 343° |
| 2026-05-07 00:15 | 38.20502 | -84.72598 | 40008 ft | 468 kts | 343° |
| 2026-05-07 00:15 | 38.27056 | -84.72400 | 40018 ft | 474 kts | 343° |
| 2026-05-07 00:16 | 38.33718 | -84.72193 | 40016 ft | 477 kts | 343° |
| 2026-05-07 00:16 | 38.40344 | -84.71981 | 40014 ft | 475 kts | 343° |
| 2026-05-07 00:17 | 38.46843 | -84.72203 | 40013 ft | 450 kts | 332° |
| 2026-05-07 00:17 | 38.49834 | -84.73043 | 40017 ft | 428 kts | 325° |
| 2026-05-07 00:17 | 38.52598 | -84.74247 | 40013 ft | 421 kts | 322° |
| 2026-05-07 00:18 | 38.58106 | -84.76820 | 40012 ft | 422 kts | 321° |
| 2026-05-07 00:18 | 38.63614 | -84.79390 | 40006 ft | 425 kts | 322° |
| 2026-05-07 00:19 | 38.69166 | -84.81971 | 40010 ft | 425 kts | 322° |
| 2026-05-07 00:19 | 38.74699 | -84.84543 | 40016 ft | 422 kts | 322° |
| 2026-05-07 00:20 | 38.80240 | -84.87128 | 40006 ft | 424 kts | 322° |
| 2026-05-07 00:20 | 38.85784 | -84.89714 | 40003 ft | 424 kts | 321° |
| 2026-05-07 00:21 | 38.91317 | -84.92296 | 40012 ft | 423 kts | 321° |
| 2026-05-07 00:21 | 38.96872 | -84.94897 | 40008 ft | 424 kts | 321° |
| 2026-05-07 00:22 | 39.02455 | -84.97516 | 39996 ft | 427 kts | 322° |
| 2026-05-07 00:22 | 39.07972 | -85.00098 | 39982 ft | 422 kts | 321° |
| 2026-05-07 00:23 | 39.13495 | -85.02700 | 40010 ft | 427 kts | 321° |
| 2026-05-07 00:23 | 39.19059 | -85.05316 | 39995 ft | 424 kts | 322° |
| 2026-05-07 00:24 | 39.24615 | -85.07938 | 39992 ft | 425 kts | 322° |
| 2026-05-07 00:24 | 39.30174 | -85.10567 | 39996 ft | 428 kts | 322° |
| 2026-05-07 00:25 | 39.35778 | -85.13216 | 39997 ft | 426 kts | 322° |
| 2026-05-07 00:25 | 39.41332 | -85.15846 | 39987 ft | 425 kts | 322° |
| 2026-05-07 00:26 | 39.46898 | -85.18486 | 39979 ft | 424 kts | 322° |
| 2026-05-07 00:26 | 39.52470 | -85.21138 | 39987 ft | 428 kts | 322° |
| 2026-05-07 00:27 | 39.58031 | -85.23786 | 40001 ft | 428 kts | 322° |
| 2026-05-07 00:27 | 39.63640 | -85.26460 | 39996 ft | 429 kts | 322° |
| 2026-05-07 00:28 | 39.69230 | -85.29134 | 39987 ft | 431 kts | 322° |
| 2026-05-07 00:28 | 39.74818 | -85.31800 | 39998 ft | 425 kts | 322° |
| 2026-05-07 00:29 | 39.80380 | -85.34473 | 40001 ft | 430 kts | 322° |
| 2026-05-07 00:30 | 39.91607 | -85.39868 | 39993 ft | 430 kts | 323° |
| 2026-05-07 00:30 | 39.97223 | -85.42577 | 39986 ft | 431 kts | 323° |
| 2026-05-07 00:31 | 40.02812 | -85.45271 | 39990 ft | 427 kts | 323° |
| 2026-05-07 00:31 | 40.08387 | -85.47973 | 39994 ft | 431 kts | 323° |
| 2026-05-07 00:32 | 40.14026 | -85.50706 | 39971 ft | 433 kts | 323° |
| 2026-05-07 00:32 | 40.19664 | -85.53439 | 39977 ft | 432 kts | 323° |
| 2026-05-07 00:33 | 40.25299 | -85.56183 | 39987 ft | 435 kts | 323° |
| 2026-05-07 00:33 | 40.30996 | -85.58960 | 39979 ft | 438 kts | 324° |
| 2026-05-07 00:34 | 40.36701 | -85.61744 | 39974 ft | 440 kts | 324° |
| 2026-05-07 00:34 | 40.42448 | -85.64552 | 39979 ft | 440 kts | 324° |
| 2026-05-07 00:35 | 40.48166 | -85.67352 | 40012 ft | 442 kts | 324° |
| 2026-05-07 00:35 | 40.53968 | -85.70034 | 40007 ft | 441 kts | 326° |
| 2026-05-07 00:36 | 40.59813 | -85.72624 | 40008 ft | 447 kts | 326° |
| 2026-05-07 00:36 | 40.65701 | -85.75240 | 40004 ft | 445 kts | 326° |
| 2026-05-07 00:37 | 40.71600 | -85.77881 | 39621 ft | 452 kts | 326° |
| 2026-05-07 00:37 | 40.74560 | -85.79208 | 39047 ft | 454 kts | 326° |
| 2026-05-07 00:37 | 40.77565 | -85.80550 | 38399 ft | 451 kts | 325° |
| 2026-05-07 00:38 | 40.80516 | -85.81872 | 37614 ft | 450 kts | 325° |
| 2026-05-07 00:38 | 40.83467 | -85.83197 | 36767 ft | 449 kts | 324° |
| 2026-05-07 00:38 | 40.86400 | -85.84516 | 35940 ft | 448 kts | 324° |
| 2026-05-07 00:38 | 40.89342 | -85.85840 | 35158 ft | 446 kts | 323° |
| 2026-05-07 00:39 | 40.92278 | -85.87162 | 34502 ft | 445 kts | 323° |
| 2026-05-07 00:39 | 40.95200 | -85.88480 | 33840 ft | 443 kts | 322° |
| 2026-05-07 00:39 | 40.98075 | -85.89777 | 33179 ft | 441 kts | 322° |
| 2026-05-07 00:39 | 41.00967 | -85.91084 | 32528 ft | 438 kts | 323° |
| 2026-05-07 00:40 | 41.03873 | -85.92406 | 31859 ft | 444 kts | 322° |
| 2026-05-07 00:40 | 41.06778 | -85.93730 | 31205 ft | 450 kts | 323° |
| 2026-05-07 00:40 | 41.09747 | -85.95081 | 30548 ft | 453 kts | 323° |
| 2026-05-07 00:40 | 41.12716 | -85.96426 | 29883 ft | 452 kts | 323° |
| 2026-05-07 00:41 | 41.15675 | -85.97766 | 29171 ft | 449 kts | 325° |
| 2026-05-07 00:41 | 41.18539 | -85.99294 | 28460 ft | 430 kts | 319° |
| 2026-05-07 00:41 | 41.21068 | -86.01192 | 27753 ft | 412 kts | 312° |
| 2026-05-07 00:41 | 41.23284 | -86.03373 | 26993 ft | 385 kts | 307° |
| 2026-05-07 00:42 | 41.25173 | -86.05730 | 26324 ft | 363 kts | 301° |
| 2026-05-07 00:42 | 41.26755 | -86.08192 | 25683 ft | 344 kts | 297° |
| 2026-05-07 00:42 | 41.28075 | -86.10759 | 25034 ft | 335 kts | 291° |
| 2026-05-07 00:42 | 41.29152 | -86.13426 | 24482 ft | 326 kts | 287° |
| 2026-05-07 00:43 | 41.30005 | -86.16193 | 23939 ft | 318 kts | 282° |
| 2026-05-07 00:43 | 41.30622 | -86.18984 | 23392 ft | 318 kts | 278° |
| 2026-05-07 00:43 | 41.31005 | -86.21877 | 22801 ft | 315 kts | 271° |
| 2026-05-07 00:43 | 41.31093 | -86.24734 | 22215 ft | 312 kts | 270° |
| 2026-05-07 00:44 | 41.31260 | -86.27586 | 21653 ft | 310 kts | 272° |
| 2026-05-07 00:44 | 41.31527 | -86.30402 | 21135 ft | 306 kts | 274° |
| 2026-05-07 00:44 | 41.31832 | -86.33183 | 20624 ft | 302 kts | 275° |
| 2026-05-07 00:44 | 41.32142 | -86.35893 | 20118 ft | 297 kts | 274° |
| 2026-05-07 00:45 | 41.32452 | -86.38579 | 19605 ft | 293 kts | 274° |
| 2026-05-07 00:45 | 41.32760 | -86.41245 | 19104 ft | 291 kts | 275° |
| 2026-05-07 00:45 | 41.33063 | -86.43880 | 18588 ft | 289 kts | 275° |
| 2026-05-07 00:45 | 41.33364 | -86.46506 | 18076 ft | 287 kts | 275° |
| 2026-05-07 00:46 | 41.33667 | -86.49146 | 17558 ft | 287 kts | 275° |
| 2026-05-07 00:46 | 41.33999 | -86.51787 | 17018 ft | 292 kts | 279° |
| 2026-05-07 00:46 | 41.34508 | -86.54363 | 16504 ft | 293 kts | 284° |
| 2026-05-07 00:46 | 41.35227 | -86.56903 | 15997 ft | 294 kts | 289° |
| 2026-05-07 00:47 | 41.36127 | -86.59330 | 15497 ft | 295 kts | 292° |
| 2026-05-07 00:47 | 41.37089 | -86.61746 | 14984 ft | 294 kts | 293° |
| 2026-05-07 00:47 | 41.38092 | -86.64081 | 14478 ft | 294 kts | 298° |
| 2026-05-07 00:47 | 41.39300 | -86.66291 | 13969 ft | 294 kts | 303° |
| 2026-05-07 00:48 | 41.40662 | -86.68272 | 13485 ft | 295 kts | 309° |
| 2026-05-07 00:48 | 41.42217 | -86.70082 | 12992 ft | 296 kts | 316° |
| 2026-05-07 00:48 | 41.43890 | -86.71626 | 12510 ft | 297 kts | 322° |
| 2026-05-07 00:48 | 41.45716 | -86.72943 | 12090 ft | 296 kts | 327° |
| 2026-05-07 00:49 | 41.47510 | -86.74144 | 12020 ft | 282 kts | 327° |
| 2026-05-07 00:49 | 41.49243 | -86.75298 | 11999 ft | 271 kts | 327° |
| 2026-05-07 00:49 | 41.50923 | -86.76408 | 12005 ft | 276 kts | 328° |
| 2026-05-07 00:49 | 41.52713 | -86.77401 | 11999 ft | 279 kts | 334° |
| 2026-05-07 00:50 | 41.54593 | -86.78120 | 12000 ft | 283 kts | 340° |
| 2026-05-07 00:50 | 41.56535 | -86.78545 | 11999 ft | 287 kts | 347° |
| 2026-05-07 00:50 | 41.58551 | -86.78720 | 12002 ft | 292 kts | 350° |
| 2026-05-07 00:50 | 41.60595 | -86.78863 | 11998 ft | 290 kts | 349° |
| 2026-05-07 00:51 | 41.62608 | -86.79039 | 11819 ft | 293 kts | 349° |
| 2026-05-07 00:51 | 41.64611 | -86.79229 | 11741 ft | 285 kts | 349° |
| 2026-05-07 00:51 | 41.66636 | -86.79438 | 11909 ft | 291 kts | 348° |
| 2026-05-07 00:51 | 41.68637 | -86.79700 | 11977 ft | 293 kts | 347° |
| 2026-05-07 00:52 | 41.70676 | -86.79971 | 11823 ft | 292 kts | 347° |
| 2026-05-07 00:52 | 41.72666 | -86.80228 | 11655 ft | 287 kts | 347° |
| 2026-05-07 00:52 | 41.74644 | -86.80482 | 11485 ft | 283 kts | 348° |
| 2026-05-07 00:52 | 41.76619 | -86.80737 | 11316 ft | 284 kts | 348° |
| 2026-05-07 00:53 | 41.78577 | -86.81030 | 11146 ft | 284 kts | 345° |
| 2026-05-07 00:53 | 41.80520 | -86.81502 | 10991 ft | 279 kts | 343° |
| 2026-05-07 00:53 | 41.82406 | -86.81968 | 10824 ft | 279 kts | 343° |
| 2026-05-07 00:53 | 41.84311 | -86.82513 | 10678 ft | 279 kts | 338° |
| 2026-05-07 00:54 | 41.86129 | -86.83391 | 10508 ft | 276 kts | 331° |
| 2026-05-07 00:54 | 41.87821 | -86.84594 | 10338 ft | 270 kts | 323° |
| 2026-05-07 00:54 | 41.89330 | -86.86060 | 10160 ft | 270 kts | 316° |
| 2026-05-07 00:54 | 41.90767 | -86.87665 | 10011 ft | 268 kts | 316° |
| 2026-05-07 00:55 | 41.92144 | -86.89317 | 9998 ft | 265 kts | 310° |
| 2026-05-07 00:55 | 41.93312 | -86.91228 | 9988 ft | 265 kts | 302° |
| 2026-05-07 00:55 | 41.94227 | -86.93353 | 9988 ft | 264 kts | 293° |
| 2026-05-07 00:55 | 41.94874 | -86.95650 | 9981 ft | 262 kts | 284° |
| 2026-05-07 00:56 | 41.95238 | -86.98044 | 9984 ft | 261 kts | 277° |
| 2026-05-07 00:56 | 41.95473 | -87.00455 | 9975 ft | 262 kts | 277° |
| 2026-05-07 00:56 | 41.95720 | -87.02869 | 9790 ft | 261 kts | 278° |
| 2026-05-07 00:56 | 41.95981 | -87.05290 | 9607 ft | 258 kts | 278° |
| 2026-05-07 00:57 | 41.96238 | -87.07640 | 9431 ft | 258 kts | 278° |
| 2026-05-07 00:57 | 41.96500 | -87.10034 | 9263 ft | 258 kts | 278° |
| 2026-05-07 00:57 | 41.96757 | -87.12392 | 9086 ft | 255 kts | 278° |
| 2026-05-07 00:57 | 41.97008 | -87.14703 | 8992 ft | 248 kts | 278° |
| 2026-05-07 00:58 | 41.97261 | -87.17031 | 8988 ft | 251 kts | 278° |
| 2026-05-07 00:58 | 41.97510 | -87.19326 | 8990 ft | 246 kts | 278° |
| 2026-05-07 00:58 | 41.97758 | -87.21609 | 8987 ft | 246 kts | 278° |
| 2026-05-07 00:58 | 41.98001 | -87.23859 | 8992 ft | 247 kts | 278° |
| 2026-05-07 00:59 | 41.98494 | -87.28433 | 8991 ft | 246 kts | 278° |
| 2026-05-07 00:59 | 41.98677 | -87.30711 | 8992 ft | 246 kts | 273° |
| 2026-05-07 00:59 | 41.98701 | -87.32995 | 8958 ft | 249 kts | 271° |
| 2026-05-07 01:00 | 41.98708 | -87.35331 | 8695 ft | 251 kts | 271° |
| 2026-05-07 01:00 | 41.98716 | -87.37696 | 8318 ft | 254 kts | 272° |
| 2026-05-07 01:00 | 41.98726 | -87.40045 | 7924 ft | 255 kts | 272° |
| 2026-05-07 01:00 | 41.98735 | -87.42413 | 7521 ft | 253 kts | 272° |
| 2026-05-07 01:01 | 41.98745 | -87.44762 | 7109 ft | 249 kts | 271° |
| 2026-05-07 01:01 | 41.98753 | -87.47037 | 6718 ft | 241 kts | 271° |
| 2026-05-07 01:01 | 41.98761 | -87.49253 | 6328 ft | 235 kts | 271° |
| 2026-05-07 01:01 | 41.98705 | -87.51430 | 6025 ft | 226 kts | 269° |
| 2026-05-07 01:02 | 41.98635 | -87.53460 | 5783 ft | 211 kts | 270° |
| 2026-05-07 01:02 | 41.98614 | -87.55375 | 5527 ft | 201 kts | 272° |
| 2026-05-07 01:02 | 41.98629 | -87.57204 | 5282 ft | 195 kts | 274° |
| 2026-05-07 01:02 | 41.98659 | -87.59012 | 5014 ft | 190 kts | 274° |
| 2026-05-07 01:03 | 41.98681 | -87.60749 | 4740 ft | 180 kts | 274° |
| 2026-05-07 01:03 | 41.98696 | -87.62388 | 4483 ft | 172 kts | 274° |
| 2026-05-07 01:03 | 41.98708 | -87.63989 | 4216 ft | 170 kts | 274° |
| 2026-05-07 01:03 | 41.98718 | -87.65565 | 4022 ft | 164 kts | 274° |
| 2026-05-07 01:04 | 41.98725 | -87.67049 | 3874 ft | 152 kts | 274° |
| 2026-05-07 01:04 | 41.98732 | -87.68398 | 3660 ft | 137 kts | 275° |
| 2026-05-07 01:04 | 41.98737 | -87.69642 | 3339 ft | 133 kts | 274° |
| 2026-05-07 01:04 | 41.98734 | -87.70905 | 2992 ft | 136 kts | 276° |
| 2026-05-07 01:05 | 41.98779 | -87.72171 | 2731 ft | 132 kts | 277° |
| 2026-05-07 01:05 | 41.98784 | -87.73353 | 2684 ft | 128 kts | 274° |
| 2026-05-07 01:05 | 41.98770 | -87.74551 | 2655 ft | 126 kts | 274° |
| 2026-05-07 01:05 | 41.98755 | -87.75732 | 2614 ft | 127 kts | 274° |
| 2026-05-07 01:06 | 41.98786 | -87.76933 | 2484 ft | 128 kts | 278° |
| 2026-05-07 01:06 | 41.98800 | -87.78091 | 2365 ft | 126 kts | 274° |
| 2026-05-07 01:06 | 41.98796 | -87.79284 | 2246 ft | 124 kts | 274° |
| 2026-05-07 01:06 | 41.98794 | -87.80455 | 2078 ft | 126 kts | 274° |
| 2026-05-07 01:07 | 41.98797 | -87.81623 | 1831 ft | 125 kts | 275° |
| 2026-05-07 01:07 | 41.98807 | -87.82789 | 1591 ft | 125 kts | 275° |
| 2026-05-07 01:07 | 41.98803 | -87.83930 | 1414 ft | 121 kts | 276° |
| 2026-05-07 01:07 | 41.98818 | -87.85095 | 1282 ft | 126 kts | 276° |
| 2026-05-07 01:08 | 41.98820 | -87.86244 | 1110 ft | 125 kts | 274° |
| 2026-05-07 01:08 | 41.98826 | -87.87408 | 929 ft | 123 kts | 274° |
| 2026-05-07 01:08 | 41.98830 | -87.88587 | 772 ft | 127 kts | 274° |
| 2026-05-07 01:08 | 41.98826 | -87.89754 | 663 ft | 117 kts | 272° |
| 2026-05-07 01:09 | 41.98833 | -87.90685 | 662 ft | 77 kts | 269° |
| 2026-05-07 01:09 | 41.98835 | -87.91264 | 664 ft | 56 kts | 270° |
| 2026-05-07 01:09 | 41.98835 | -87.91755 | 673 ft | 48 kts | 269° |
| 2026-05-07 01:09 | 41.98832 | -87.92184 | 678 ft | 43 kts | 269° |
| 2026-05-07 01:10 | 41.98905 | -87.92405 | 678 ft | 21 kts | 351° |
| 2026-05-07 01:10 | 41.98995 | -87.92298 | 678 ft | 20 kts | 87° |
| 2026-05-07 01:10 | 41.98992 | -87.92082 | 676 ft | 26 kts | 91° |
| 2026-05-07 01:10 | 41.99063 | -87.91873 | 674 ft | 27 kts | 359° |
| 2026-05-07 01:11 | 41.99256 | -87.91887 | 673 ft | 28 kts | 356° |
| 2026-05-07 01:11 | 41.99416 | -87.92027 | 675 ft | 27 kts | 321° |
| 2026-05-07 01:11 | 41.99452 | -87.92234 | 675 ft | 26 kts | 231° |
| 2026-05-07 01:11 | 41.99466 | -87.92371 | 675 ft | 3 kts | 318° |
| 2026-05-07 01:12 | 41.99469 | -87.92375 | 675 ft | 0 kts | 320° |